Time;durP1;ratioP1;P1;durP2;ratioP2;P2;SDS_P1;SDS_P2;PMS_P1;PMS_P2;Temp;Humidity;BMP_temperature;BMP_pressure;BME280_temperature;BME280_humidity;BME280_pressure;Samples;Min_cycle;Max_cycle;Signal;HPM_P1;HPM_P2
2022/10/05 00:01:00;;;;;;;10.02;4.97;;;;;;;10.48;100.00;101601.53;4901426;29;20573;-73
2022/10/05 00:03:32;;;;;;;11.85;6.28;;;;;;;10.47;100.00;101596.47;4899184;29;20040;-73
2022/10/05 00:05:58;;;;;;;8.40;5.32;;;;;;;10.45;100.00;101588.88;4893449;29;20047;-73
2022/10/05 00:08:32;;;;;;;8.85;4.90;;;;;;;10.44;100.00;101591.59;4894334;29;20047;-73
2022/10/05 00:10:58;;;;;;;10.35;5.43;;;;;;;10.44;100.00;101589.81;4905085;29;20036;-73
2022/10/05 00:13:26;;;;;;;9.38;5.43;;;;;;;10.44;100.00;101587.22;4887707;29;20043;-73
2022/10/05 00:15:58;;;;;;;11.38;5.47;;;;;;;10.43;100.00;101585.56;4904614;29;20071;-73
2022/10/05 00:18:25;;;;;;;12.30;5.65;;;;;;;10.42;100.00;101586.53;4907873;29;20039;-73
2022/10/05 00:20:51;;;;;;;9.43;5.03;;;;;;;10.40;100.00;101580.66;4871969;29;20816;-73
2022/10/05 00:23:20;;;;;;;7.95;4.85;;;;;;;10.41;100.00;101571.09;4898768;29;20040;-73
2022/10/05 00:25:46;;;;;;;12.77;6.10;;;;;;;10.38;100.00;101569.63;4902837;29;20186;-73
2022/10/05 00:28:25;;;;;;;9.95;5.35;;;;;;;10.39;100.00;101570.44;4898593;29;20128;-73
2022/10/05 00:30:54;;;;;;;10.65;6.00;;;;;;;10.38;100.00;101572.22;4902898;29;20050;-73
2022/10/05 00:33:20;;;;;;;9.85;5.75;;;;;;;10.37;100.00;101573.16;4874689;29;20047;-73
2022/10/05 00:35:45;;;;;;;10.00;5.90;;;;;;;10.36;100.00;101574.13;4887932;29;20036;-73
2022/10/05 00:38:11;;;;;;;9.35;6.13;;;;;;;10.32;100.00;101583.94;4894839;29;20729;-73
2022/10/05 00:40:59;;;;;;;13.82;6.13;;;;;;;10.31;100.00;101584.88;4891527;29;20039;-73
2022/10/05 00:43:51;;;;;;;10.77;6.07;;;;;;;10.31;100.00;101582.28;4890857;29;20032;-72
2022/10/05 00:46:25;;;;;;;9.85;6.00;;;;;;;10.31;100.00;101587.47;4884650;29;20032;-73
2022/10/05 00:49:28;;;;;;;10.40;5.65;;;;;;;10.28;100.00;101579.09;4897860;29;20757;-73
2022/10/05 00:52:19;;;;;;;12.82;5.72;;;;;;;10.28;100.00;101576.50;4888450;29;20072;-73
2022/10/05 00:55:10;;;;;;;8.65;5.57;;;;;;;10.27;100.00;101577.50;4900503;29;20056;-73
2022/10/05 00:57:57;;;;;;;9.77;5.22;;;;;;;10.26;100.00;101586.19;4854842;29;20047;-73
2022/10/05 01:00:25;;;;;;;8.93;5.95;;;;;;;10.23;100.00;101582.13;4905880;29;20090;-73
2022/10/05 01:03:18;;;;;;;9.95;5.97;;;;;;;10.21;100.00;101586.63;4872503;29;20032;-73
2022/10/05 01:06:07;;;;;;;10.35;5.88;;;;;;;10.20;100.00;101569.41;4907115;29;20028;-73
2022/10/05 01:08:55;;;;;;;10.50;6.30;;;;;;;10.19;100.00;101572.97;4894699;29;20044;-73
2022/10/05 01:11:33;;;;;;;12.98;6.00;;;;;;;10.18;100.00;101571.31;4892871;29;20096;-73
2022/10/05 01:13:59;;;;;;;13.32;6.50;;;;;;;10.18;100.00;101575.69;4903267;29;20502;-73
2022/10/05 01:16:24;;;;;;;11.75;6.75;;;;;;;10.18;100.00;101567.94;4873063;29;20116;-73
2022/10/05 01:19:09;;;;;;;10.93;6.28;;;;;;;10.18;100.00;101567.94;4888750;29;20095;-73
2022/10/05 01:21:44;;;;;;;11.25;6.18;;;;;;;10.17;100.00;101563.69;4907807;29;20099;-73
2022/10/05 01:24:48;;;;;;;11.48;6.13;;;;;;;10.16;100.00;101559.47;4875625;29;20036;-73
2022/10/05 01:27:41;;;;;;;12.20;6.40;;;;;;;10.14;100.00;101557.81;4911358;29;20051;-73
2022/10/05 01:30:12;;;;;;;13.25;6.20;;;;;;;10.14;100.00;101549.22;4888282;29;20080;-73
2022/10/05 01:32:43;;;;;;;12.35;6.50;;;;;;;10.10;100.00;101553.06;4885544;29;20103;-73
2022/10/05 01:35:28;;;;;;;12.27;6.20;;;;;;;10.11;100.00;101552.91;4873675;29;20079;-73
2022/10/05 01:38:10;;;;;;;14.18;6.63;;;;;;;10.10;100.00;101556.44;4890465;29;20032;-73
2022/10/05 01:40:48;;;;;;;11.77;6.85;;;;;;;10.11;100.00;101550.31;4902257;29;20046;-73
2022/10/05 01:43:39;;;;;;;14.45;7.25;;;;;;;10.11;100.00;101544.31;4891087;29;20036;-73
2022/10/05 01:46:27;;;;;;;14.05;7.00;;;;;;;10.07;100.00;101538.56;4893115;29;20044;-73
2022/10/05 01:49:20;;;;;;;18.05;6.78;;;;;;;10.09;100.00;101543.63;4899752;29;20047;-73
2022/10/05 01:52:23;;;;;;;13.70;7.18;;;;;;;10.07;100.00;101546.34;4906073;29;20119;-73
2022/10/05 01:54:59;;;;;;;12.77;6.73;;;;;;;10.08;100.00;101544.59;4888699;29;20397;-73
2022/10/05 01:57:59;;;;;;;16.13;8.13;;;;;;;10.07;100.00;101545.53;4888730;29;20152;-73
2022/10/05 02:00:27;;;;;;;15.50;7.80;;;;;;;10.08;100.00;101539.41;4895436;29;20135;-73
2022/10/05 02:03:01;;;;;;;16.95;7.55;;;;;;;10.07;100.00;101537.75;4900427;29;20029;-73
2022/10/05 02:05:51;;;;;;;17.17;7.70;;;;;;;10.04;100.00;101536.25;4886911;29;20580;-73
2022/10/05 02:08:24;;;;;;;13.70;7.68;;;;;;;10.05;100.00;101537.88;4904051;29;20035;-73
2022/10/05 02:10:58;;;;;;;12.98;7.32;;;;;;;10.08;100.00;101537.63;4905036;29;20033;-73
2022/10/05 02:13:49;;;;;;;17.25;8.07;;;;;;;10.08;100.00;101529.84;4888066;29;20055;-73
2022/10/05 02:16:22;;;;;;;14.70;7.78;;;;;;;10.12;100.00;101531.22;4904900;29;20039;-73
2022/10/05 02:18:53;;;;;;;16.73;8.25;;;;;;;10.14;100.00;101525.91;4891337;29;20362;-73
2022/10/05 02:21:20;;;;;;;13.77;8.15;;;;;;;10.15;100.00;101527.53;4901465;29;20040;-73
2022/10/05 02:23:49;;;;;;;17.55;8.10;;;;;;;10.20;100.00;101520.16;4897503;29;20032;-73
2022/10/05 02:26:17;;;;;;;16.70;8.50;;;;;;;10.28;100.00;101522.91;4892307;29;20032;-73
2022/10/05 02:28:51;;;;;;;18.20;8.20;;;;;;;10.26;100.00;101514.44;4895728;29;20706;-74
2022/10/05 02:31:42;;;;;;;19.73;8.52;;;;;;;10.27;100.00;101516.09;4888494;29;20040;-73
2022/10/05 02:34:28;;;;;;;17.08;7.82;;;;;;;10.36;100.00;101521.44;4907824;29;20444;-73
2022/10/05 02:37:23;;;;;;;14.38;8.48;;;;;;;10.34;100.00;101524.19;4887424;29;20549;-73
2022/10/05 02:40:18;;;;;;;14.68;8.50;;;;;;;10.35;100.00;101527.59;4870976;29;20489;-73
2022/10/05 02:43:10;;;;;;;18.27;8.43;;;;;;;10.37;100.00;101510.94;4889362;29;20036;-73
2022/10/05 02:46:02;;;;;;;15.45;8.30;;;;;;;10.45;100.00;101505.06;4874519;29;20056;-73
2022/10/05 02:48:47;;;;;;;19.05;9.23;;;;;;;10.52;100.00;101501.75;4856649;29;20524;-72
2022/10/05 02:51:27;;;;;;;17.60;8.88;;;;;;;10.67;100.00;101509.94;4903197;29;20083;-72
2022/10/05 02:54:25;;;;;;;15.57;8.40;;;;;;;10.69;100.00;101499.44;4891315;29;20047;-72
2022/10/05 02:57:06;;;;;;;17.13;7.95;;;;;;;10.69;100.00;101496.84;4891078;29;20032;-73
2022/10/05 03:00:03;;;;;;;15.75;8.30;;;;;;;10.77;100.00;101496.13;4904169;29;20040;-73
2022/10/05 03:02:47;;;;;;;17.50;7.90;;;;;;;10.81;100.00;101482.75;4901510;29;20147;-72
2022/10/05 03:05:30;;;;;;;12.98;7.72;;;;;;;10.80;100.00;101486.28;4887517;29;20044;-72
2022/10/05 03:08:14;;;;;;;19.05;9.02;;;;;;;10.88;100.00;101489.00;4887872;29;20112;-72
2022/10/05 03:10:58;;;;;;;;;;;;;;;10.80;100.00;101486.28;4891235;29;20115;-72
2022/10/05 03:13:35;;;;;;;14.95;8.50;;;;;;;10.83;100.00;101480.84;4890574;29;19927;-73
2022/10/05 03:16:07;;;;;;;14.43;8.48;;;;;;;10.94;100.00;101473.81;4887964;29;20101;-72
2022/10/05 03:19:20;;;;;;;16.27;8.55;;;;;;;11.02;100.00;101469.56;4888534;29;20497;-72
2022/10/05 03:22:10;;;;;;;17.98;7.85;;;;;;;11.14;100.00;101472.00;4876108;29;20490;-72
2022/10/05 03:25:09;;;;;;;15.65;8.82;;;;;;;11.05;100.00;101460.69;4886560;29;20037;-72
2022/10/05 03:28:09;;;;;;;16.10;8.20;;;;;;;10.95;100.00;101465.91;4889301;29;20047;-72
2022/10/05 03:30:45;;;;;;;15.85;8.30;;;;;;;11.00;100.00;101457.69;4905667;29;20450;-72
2022/10/05 03:33:21;;;;;;;20.55;8.73;;;;;;;11.01;100.00;101449.75;4905239;29;20028;-72
2022/10/05 03:35:57;;;;;;;18.67;9.02;;;;;;;10.98;100.00;101449.22;4893468;29;20028;-72
2022/10/05 03:38:53;;;;;;;13.52;8.23;;;;;;;11.04;100.00;101457.28;4906912;29;20045;-72
2022/10/05 03:41:37;;;;;;;16.52;8.70;;;;;;;11.03;100.00;101447.84;4898687;29;20139;-72
2022/10/05 03:44:09;;;;;;;15.18;8.93;;;;;;;11.05;100.00;101453.69;4875769;29;20036;-72
2022/10/05 03:46:53;;;;;;;15.38;9.32;;;;;;;11.13;100.00;101455.56;4892940;29;20063;-72
2022/10/05 03:49:35;;;;;;;17.70;8.52;;;;;;;11.10;100.00;101448.91;4893152;29;20024;-72
2022/10/05 03:52:12;;;;;;;23.52;9.68;;;;;;;11.16;100.00;101450.09;4894173;29;20725;-72
2022/10/05 03:54:49;;;;;;;24.00;10.07;;;;;;;11.15;100.00;101456.28;4890157;29;20619;-72
2022/10/05 03:57:22;;;;;;;17.42;9.57;;;;;;;11.24;100.00;101450.19;4889324;29;20055;-72
2022/10/05 04:00:19;;;;;;;19.48;9.35;;;;;;;11.27;100.00;101446.50;4886498;29;20028;-72
2022/10/05 04:03:15;;;;;;;17.10;9.13;;;;;;;11.16;100.00;101447.50;4881937;29;20513;-72
2022/10/05 04:06:19;;;;;;;19.33;9.90;;;;;;;11.20;100.00;101442.84;4906988;29;20511;-72
2022/10/05 04:09:01;;;;;;;19.48;8.63;;;;;;;11.20;100.00;101443.66;4877329;29;20048;-72
2022/10/05 04:11:49;;;;;;;15.95;8.65;;;;;;;11.21;100.00;101436.72;4906932;29;20510;-73
2022/10/05 04:14:27;;;;;;;21.83;9.40;;;;;;;11.20;100.00;101435.06;4881847;29;20401;-72
2022/10/05 04:17:10;;;;;;;12.50;8.75;;;;;;;11.23;100.00;101440.78;4878685;29;20063;-72
2022/10/05 04:19:58;;;;;;;18.92;9.25;;;;;;;11.20;100.00;101430.69;4893453;29;20075;-72
2022/10/05 04:22:34;;;;;;;17.25;8.18;;;;;;;11.30;100.00;101436.66;4889924;29;20044;-72
2022/10/05 04:25:02;;;;;;;16.35;7.97;;;;;;;11.32;100.00;101426.13;4889123;29;20358;-72
2022/10/05 04:27:38;;;;;;;20.02;9.10;;;;;;;11.25;100.00;101423.28;4872932;29;20036;-72
2022/10/05 04:30:11;;;;;;;17.95;8.30;;;;;;;11.17;100.00;101433.59;4877828;29;20127;-72
2022/10/05 04:32:56;;;;;;;13.70;8.07;;;;;;;11.15;100.00;101442.47;4877305;29;21061;-72
2022/10/05 04:35:55;;;;;;;18.13;8.82;;;;;;;11.22;100.00;101436.53;4890681;29;20500;-72
2022/10/05 04:38:33;;;;;;;16.10;9.20;;;;;;;11.22;100.00;101430.53;4894590;29;20151;-72
2022/10/05 04:41:21;;;;;;;12.80;8.40;;;;;;;11.14;100.00;101433.88;4898331;29;20521;-72
2022/10/05 04:44:00;;;;;;;17.27;9.30;;;;;;;11.22;100.00;101431.34;4892110;29;20197;-72
2022/10/05 04:47:02;;;;;;;19.00;8.77;;;;;;;11.19;100.00;101433.41;4885839;29;20127;-72
2022/10/05 04:50:06;;;;;;;14.43;8.00;;;;;;;11.18;100.00;101431.81;4902278;29;20128;-72
2022/10/05 04:52:59;;;;;;;;;;;;;;;11.19;100.00;101436.84;4894605;29;20054;-72
2022/10/05 04:55:31;;;;;;;16.13;8.25;;;;;;;11.15;100.00;101440.69;4890111;29;19918;-71
2022/10/05 04:58:33;;;;;;;14.23;8.53;;;;;;;11.24;100.00;101441.59;4891417;29;20091;-72
2022/10/05 05:01:46;;;;;;;20.20;9.63;;;;;;;11.25;100.00;101451.03;4897486;29;20049;-72
2022/10/05 05:04:31;;;;;;;19.33;8.88;;;;;;;11.28;100.00;101445.53;4890966;29;20514;-72
2022/10/05 05:07:18;;;;;;;15.90;9.00;;;;;;;11.25;100.00;101448.44;4904959;29;20515;-72
2022/10/05 05:10:25;;;;;;;14.90;8.65;;;;;;;11.38;100.00;101451.50;4896615;29;20618;-72
2022/10/05 05:13:44;;;;;;;18.60;8.70;;;;;;;11.34;100.00;101452.75;4900089;29;20500;-72
2022/10/05 05:16:43;;;;;;;15.77;8.40;;;;;;;11.33;100.00;101443.31;4833437;29;20561;-72
2022/10/05 05:19:44;;;;;;;19.05;8.60;;;;;;;11.39;100.00;101440.16;4888104;29;20040;-72
2022/10/05 05:22:33;;;;;;;17.52;8.43;;;;;;;11.41;100.00;101440.81;4860394;29;20497;-72
2022/10/05 05:25:16;;;;;;;13.63;7.90;;;;;;;11.48;100.00;101447.06;4891224;29;20040;-72
2022/10/05 05:27:56;;;;;;;14.57;8.15;;;;;;;11.64;100.00;101432.59;4887911;29;20046;-72
2022/10/05 05:30:47;;;;;;;21.15;8.13;;;;;;;11.52;100.00;101441.59;4904901;29;20056;-72
2022/10/05 05:33:21;;;;;;;17.30;8.48;;;;;;;11.60;100.00;101439.91;4901421;29;20039;-73
2022/10/05 05:36:12;;;;;;;14.73;7.45;;;;;;;11.55;100.00;101436.91;4884758;29;20036;-72
2022/10/05 05:38:50;;;;;;;21.55;8.57;;;;;;;11.59;100.00;101440.84;4883703;29;20064;-72
2022/10/05 05:41:32;;;;;;;17.45;8.23;;;;;;;11.58;100.00;101443.59;4901679;29;20494;-71
2022/10/05 05:44:10;;;;;;;17.05;7.88;;;;;;;11.53;100.00;101446.63;4885821;29;20040;-72
2022/10/05 05:46:38;;;;;;;15.98;7.85;;;;;;;11.55;100.00;101439.53;4890911;29;20532;-72
2022/10/05 05:49:15;;;;;;;11.93;6.82;;;;;;;11.71;100.00;101446.63;4882292;29;20128;-72
2022/10/05 05:52:18;;;;;;;20.10;7.55;;;;;;;11.73;100.00;101442.13;4887819;29;21659;-72
2022/10/05 05:54:54;;;;;;;15.47;7.40;;;;;;;11.74;100.00;101440.34;4878675;29;20079;-72
2022/10/05 05:57:28;;;;;;;13.80;8.18;;;;;;;11.73;100.00;101436.91;4907712;29;20461;-73
2022/10/05 05:59:59;;;;;;;17.83;8.57;;;;;;;11.63;100.00;101433.59;4902554;29;20044;-72
2022/10/05 06:02:42;;;;;;;14.65;7.57;;;;;;;11.67;100.00;101438.31;4890931;29;20032;-72
2022/10/05 06:05:23;;;;;;;16.20;9.07;;;;;;;11.72;100.00;101437.91;4903172;29;20383;-72
2022/10/05 06:07:51;;;;;;;17.00;7.70;;;;;;;11.75;100.00;101439.38;4901382;29;20039;-72
2022/10/05 06:10:20;;;;;;;12.43;7.88;;;;;;;11.78;100.00;101437.31;4888885;29;20107;-72
2022/10/05 06:13:02;;;;;;;14.68;8.00;;;;;;;11.75;100.00;101432.38;4874787;29;20195;-72
2022/10/05 06:15:37;;;;;;;17.42;7.75;;;;;;;11.71;100.00;101435.44;4887168;29;20043;-73
2022/10/05 06:18:12;;;;;;;13.27;7.43;;;;;;;11.77;100.00;101435.69;4885478;29;20120;-73
2022/10/05 06:20:37;;;;;;;15.63;7.43;;;;;;;11.72;100.00;101435.31;4889678;29;20037;-72
2022/10/05 06:23:13;;;;;;;14.73;8.70;;;;;;;11.82;100.00;101441.22;4888223;29;20093;-72
2022/10/05 06:25:53;;;;;;;15.63;8.13;;;;;;;11.75;100.00;101442.78;4904842;29;20050;-72
2022/10/05 06:28:23;;;;;;;15.13;7.97;;;;;;;11.80;100.00;101440.56;4885446;29;20036;-72
2022/10/05 06:31:28;;;;;;;15.27;7.72;;;;;;;11.71;100.00;101443.22;4903485;29;20063;-73
2022/10/05 06:34:19;;;;;;;12.73;7.50;;;;;;;11.72;100.00;101444.88;4892381;29;20130;-73
2022/10/05 06:36:54;;;;;;;15.85;7.90;;;;;;;11.79;100.00;101448.50;4879522;29;20044;-74
2022/10/05 06:39:37;;;;;;;17.45;7.97;;;;;;;11.78;100.00;101441.69;4883639;29;20063;-72
2022/10/05 06:42:39;;;;;;;17.02;7.93;;;;;;;11.81;100.00;101443.97;4876757;29;20033;-74
2022/10/05 06:45:37;;;;;;;12.90;8.27;;;;;;;11.89;100.00;101441.47;4897279;29;20075;-73
2022/10/05 06:48:50;;;;;;;10.32;6.95;;;;;;;11.83;100.00;101442.06;4907015;29;20036;-73
2022/10/05 06:51:49;;;;;;;11.73;7.70;;;;;;;11.87;100.00;101439.00;4881577;29;20389;-73
2022/10/05 06:54:36;;;;;;;21.27;7.28;;;;;;;11.91;100.00;101438.75;4890179;29;20020;-73
2022/10/05 06:57:12;;;;;;;19.42;7.50;;;;;;;11.96;100.00;101439.94;4895020;29;20540;-75
2022/10/05 07:00:00;;;;;;;11.27;7.45;;;;;;;11.90;100.00;101434.50;4895320;29;20044;-73
2022/10/05 07:02:44;;;;;;;18.33;8.30;;;;;;;11.81;100.00;101442.22;4890248;29;20095;-73
2022/10/05 07:05:46;;;;;;;15.90;7.47;;;;;;;11.93;100.00;101437.63;4890360;29;20047;-74
2022/10/05 07:08:27;;;;;;;17.05;7.60;;;;;;;11.95;100.00;101437.47;4879178;29;20036;-74
2022/10/05 07:11:02;;;;;;;16.00;7.40;;;;;;;11.98;100.00;101440.59;4898057;29;20031;-75
2022/10/05 07:13:53;;;;;;;14.88;6.38;;;;;;;11.98;100.00;101438.00;4877123;29;20040;-73
2022/10/05 07:16:41;;;;;;;13.93;7.03;;;;;;;11.97;100.00;101432.94;4905976;29;20034;-74
2022/10/05 07:19:26;;;;;;;10.93;6.32;;;;;;;11.92;100.00;101433.38;4890242;29;20052;-73
2022/10/05 07:21:57;;;;;;;13.18;6.50;;;;;;;12.01;100.00;101426.47;4896230;29;20087;-73
2022/10/05 07:24:46;;;;;;;14.60;7.18;;;;;;;12.00;100.00;101425.66;4908965;29;20397;-73
2022/10/05 07:27:15;;;;;;;11.93;6.22;;;;;;;11.98;100.00;101430.22;4907845;29;20047;-73
2022/10/05 07:29:49;;;;;;;17.95;7.00;;;;;;;11.99;100.00;101423.22;4894971;29;20046;-74
2022/10/05 07:32:44;;;;;;;11.88;6.47;;;;;;;12.07;100.00;101424.13;4889834;29;20122;-75
2022/10/05 07:38:35;;;;;;;14.13;5.15;;;;;;;12.08;100.00;101430.13;4909928;29;20508;-73
2022/10/05 07:41:07;;;;;;;13.43;6.25;;;;;;;12.24;100.00;101425.06;4873094;29;20075;-73
2022/10/05 07:43:36;;;;;;;;;;;;;;;12.29;100.00;101423.78;4887079;29;20536;-73
2022/10/05 07:46:09;;;;;;;9.88;6.03;;;;;;;12.31;100.00;101429.63;4904403;29;19919;-73
2022/10/05 07:49:03;;;;;;;11.98;6.43;;;;;;;12.34;100.00;101439.72;4910270;29;20059;-73
2022/10/05 07:51:44;;;;;;;14.65;6.20;;;;;;;12.43;100.00;101424.03;4895880;29;20090;-75
2022/10/05 07:54:36;;;;;;;19.05;6.03;;;;;;;12.42;100.00;101434.59;4875576;29;20059;-73
2022/10/05 07:57:11;;;;;;;12.27;5.93;;;;;;;12.44;100.00;101432.66;4888206;29;20363;-74
2022/10/05 07:59:48;;;;;;;11.80;5.03;;;;;;;12.62;100.00;101430.81;4890283;29;20092;-73
2022/10/05 08:02:31;;;;;;;11.45;5.57;;;;;;;12.60;100.00;101429.31;4892305;29;20036;-73
2022/10/05 08:05:02;;;;;;;9.90;5.85;;;;;;;12.65;100.00;101434.88;4893394;29;20413;-73
2022/10/05 08:07:32;;;;;;;13.45;5.63;;;;;;;12.88;100.00;101435.16;4879812;29;20624;-74
2022/10/05 08:10:32;;;;;;;11.45;5.95;;;;;;;12.81;99.87;101426.38;4904576;29;20051;-73
2022/10/05 08:13:23;;;;;;;15.10;6.40;;;;;;;12.89;99.67;101429.00;4892941;29;20039;-74
2022/10/05 08:15:53;;;;;;;16.38;5.80;;;;;;;12.89;99.70;101429.00;4893748;29;20032;-74
2022/10/05 08:18:44;;;;;;;9.95;4.40;;;;;;;12.95;99.79;101435.38;4907564;29;20481;-73
2022/10/05 08:21:11;;;;;;;10.73;5.25;;;;;;;13.00;100.00;101431.31;4900341;29;20036;-73
2022/10/05 08:23:49;;;;;;;8.55;5.32;;;;;;;12.94;100.00;101437.16;4891565;29;20084;-73
2022/10/05 08:26:27;;;;;;;10.38;5.57;;;;;;;13.03;99.85;101422.38;4891586;29;20048;-74
2022/10/05 08:29:07;;;;;;;9.45;4.63;;;;;;;13.09;99.18;101420.94;4903664;29;20111;-75
2022/10/05 08:31:36;;;;;;;11.60;6.90;;;;;;;13.15;98.88;101431.53;4905601;29;20043;-72
2022/10/05 08:34:23;;;;;;;10.38;4.70;;;;;;;13.15;99.19;101422.94;4901308;29;20477;-73
2022/10/05 08:37:02;;;;;;;9.50;4.65;;;;;;;13.19;99.40;101424.25;4892235;29;20036;-72
2022/10/05 08:39:39;;;;;;;9.15;4.78;;;;;;;13.32;98.98;101424.63;4873099;29;20481;-73
2022/10/05 08:42:26;;;;;;;8.95;4.32;;;;;;;13.50;97.19;101418.47;4882412;29;20055;-74
2022/10/05 08:45:30;;;;;;;9.35;4.65;;;;;;;13.62;96.59;101420.63;4892547;29;20070;-73
2022/10/05 08:48:32;;;;;;;9.50;4.80;;;;;;;13.81;96.00;101416.09;4904744;29;20058;-73
2022/10/05 08:51:25;;;;;;;8.38;3.97;;;;;;;13.84;95.19;101415.75;4902373;29;20032;-73
2022/10/05 08:54:25;;;;;;;8.05;4.05;;;;;;;13.89;94.77;101412.66;4902376;29;20041;-73
2022/10/05 08:57:23;;;;;;;7.18;3.67;;;;;;;13.87;96.23;101417.22;4889894;29;20040;-74
2022/10/05 09:00:09;;;;;;;10.13;3.72;;;;;;;13.96;95.68;101417.06;4909011;29;20111;-74
2022/10/05 09:03:12;;;;;;;6.47;3.25;;;;;;;14.02;94.96;101413.78;4910410;29;20047;-73
2022/10/05 09:06:10;;;;;;;7.45;3.42;;;;;;;14.08;95.00;101416.72;4907020;29;20036;-74
2022/10/05 09:08:44;;;;;;;7.95;3.63;;;;;;;14.31;93.80;101409.03;4903335;29;20614;-74
2022/10/05 09:11:36;;;;;;;7.00;3.50;;;;;;;14.44;92.76;101404.13;4914862;29;20050;-74
2022/10/05 09:14:20;;;;;;;7.50;2.92;;;;;;;14.39;92.90;101402.03;4889336;29;20555;-73
2022/10/05 09:17:07;;;;;;;7.82;3.10;;;;;;;14.37;93.80;101404.00;4881675;29;20040;-74
2022/10/05 09:20:29;;;;;;;9.07;3.55;;;;;;;14.52;93.70;101400.69;4905327;29;20045;-76
2022/10/05 09:23:33;;;;;;;7.85;3.50;;;;;;;14.63;91.65;101391.72;4804780;29;20588;-73
2022/10/05 09:26:06;;;;;;;8.20;3.05;;;;;;;14.75;91.68;101390.38;4835340;29;20067;-74
2022/10/05 09:28:50;;;;;;;10.65;3.50;;;;;;;14.82;90.22;101396.53;4821000;29;20067;-73
2022/10/05 09:31:48;;;;;;;6.13;3.20;;;;;;;14.99;89.08;101392.88;4874449;29;20056;-73
2022/10/05 09:34:47;;;;;;;5.93;3.05;;;;;;;15.06;87.14;101393.00;4867584;29;20052;-73
2022/10/05 09:37:37;;;;;;;9.13;2.90;;;;;;;15.10;86.90;101385.63;4901390;29;20036;-75
2022/10/05 09:40:31;;;;;;;5.95;2.30;;;;;;;15.14;87.35;101384.31;4906000;29;20040;-74
2022/10/05 09:43:08;;;;;;;6.75;1.92;;;;;;;15.25;85.15;101383.09;4879945;29;20031;-73
2022/10/05 09:45:47;;;;;;;2.78;1.98;;;;;;;15.40;85.89;101385.78;4908488;29;20052;-73
2022/10/05 09:48:31;;;;;;;5.85;2.47;;;;;;;15.37;84.65;101382.53;4887235;29;20379;-73
2022/10/05 09:51:25;;;;;;;4.07;1.92;;;;;;;15.42;83.25;101384.63;4905539;29;20040;-73
2022/10/05 09:54:22;;;;;;;3.55;2.05;;;;;;;15.51;84.18;101386.19;4898837;29;20059;-73
2022/10/05 09:57:18;;;;;;;6.38;1.85;;;;;;;15.65;82.63;101376.81;4882551;29;20130;-73
2022/10/05 10:00:06;;;;;;;2.83;1.60;;;;;;;15.65;82.59;101376.81;4893882;29;20082;-73
2022/10/05 10:02:55;;;;;;;3.83;1.85;;;;;;;15.73;81.57;101379.38;4910086;29;20356;-73
2022/10/05 10:05:32;;;;;;;3.65;1.65;;;;;;;15.85;80.28;101363.25;4905830;29;20800;-73
2022/10/05 10:08:10;;;;;;;6.55;1.60;;;;;;;15.82;82.12;101387.13;4901562;29;20046;-73
2022/10/05 10:11:03;;;;;;;4.75;1.85;;;;;;;16.07;78.88;101370.25;4905552;29;20402;-76
2022/10/05 10:13:58;;;;;;;3.15;1.60;;;;;;;16.10;79.51;101371.69;4894590;29;20056;-73
2022/10/05 10:16:44;;;;;;;6.68;1.70;;;;;;;16.17;79.67;101363.94;4886857;29;20191;-74
2022/10/05 10:19:41;;;;;;;2.58;1.63;;;;;;;16.08;80.56;101369.25;4902439;29;20959;-74
2022/10/05 10:23:03;;;;;;;7.93;1.50;;;;;;;16.15;80.13;101362.31;4887316;29;20052;-74
2022/10/05 10:26:05;;;;;;;6.13;1.27;;;;;;;16.26;78.96;101358.44;4835648;29;20053;-74
2022/10/05 10:28:45;;;;;;;4.18;1.90;;;;;;;16.42;77.10;101356.63;4884342;29;20091;-73
2022/10/05 10:31:29;;;;;;;2.97;1.50;;;;;;;16.39;77.19;101363.06;4904124;29;20556;-74
2022/10/05 10:34:00;;;;;;;4.43;1.40;;;;;;;16.38;78.45;101361.41;4884096;29;20032;-73
2022/10/05 10:36:49;;;;;;;3.50;1.33;;;;;;;16.52;77.57;101362.44;4908760;29;20127;-74
2022/10/05 10:39:55;;;;;;;3.63;1.85;;;;;;;16.52;77.85;101362.44;4897885;29;20060;-73
2022/10/05 10:42:37;;;;;;;6.22;2.20;;;;;;;16.53;77.03;101359.59;4911337;29;20047;-73
2022/10/05 10:45:44;;;;;;;1.95;1.40;;;;;;;16.61;77.42;101356.06;4907771;29;20152;-77
2022/10/05 10:48:41;;;;;;;2.92;1.65;;;;;;;16.71;77.56;101364.47;4898094;29;20044;-74
2022/10/05 10:51:28;;;;;;;3.65;1.63;;;;;;;16.76;76.69;101337.72;4909872;29;20036;-74
2022/10/05 10:54:02;;;;;;;3.00;1.42;;;;;;;16.96;75.14;101335.38;4897744;29;20028;-74
2022/10/05 10:57:08;;;;;;;2.75;1.38;;;;;;;17.11;75.46;101330.09;4912165;29;20128;-77
2022/10/05 11:00:06;;;;;;;6.18;1.80;;;;;;;17.19;75.72;101329.97;4902946;29;20032;-75
2022/10/05 11:02:47;;;;;;;1.92;1.20;;;;;;;17.44;74.89;101325.19;4893198;29;20445;-76
2022/10/05 11:05:46;;;;;;;2.72;1.38;;;;;;;17.52;72.51;101313.75;4875426;29;20044;-74
2022/10/05 11:08:12;;;;;;;2.40;1.27;;;;;;;17.56;72.82;101309.72;4902659;29;20083;-75
2022/10/05 11:10:59;;;;;;;4.50;2.17;;;;;;;17.64;72.82;101312.22;4901349;29;20071;-73
2022/10/05 11:13:47;;;;;;;6.43;1.38;;;;;;;17.65;73.06;101303.34;4909608;29;20375;-75
2022/10/05 11:16:29;;;;;;;3.55;1.35;;;;;;;17.74;72.25;101296.13;4908686;29;20060;-75
2022/10/05 11:19:21;;;;;;;2.50;1.20;;;;;;;17.75;72.73;101294.34;4893276;29;20409;-73
2022/10/05 11:22:24;;;;;;;3.85;1.42;;;;;;;17.97;71.51;101282.81;4894140;29;20152;-74
2022/10/05 11:25:26;;;;;;;2.80;1.52;;;;;;;18.03;71.30;101287.28;4904386;29;20036;-75
2022/10/05 11:28:04;;;;;;;5.33;1.60;;;;;;;18.11;71.84;101275.00;4906140;29;20029;-76
2022/10/05 11:30:34;;;;;;;3.28;1.13;;;;;;;18.19;70.69;101275.66;4905678;29;20041;-76
2022/10/05 11:33:31;;;;;;;2.20;1.38;;;;;;;18.14;70.27;101261.50;4892308;29;20036;-73
2022/10/05 11:36:02;;;;;;;5.55;1.50;;;;;;;18.16;70.97;101256.84;4912483;29;20485;-75
2022/10/05 11:38:30;;;;;;;3.03;1.30;;;;;;;18.11;71.56;101262.69;4905040;29;20051;-76
2022/10/05 11:41:17;;;;;;;3.47;1.25;;;;;;;18.42;70.22;101253.53;4906475;29;20046;-76
2022/10/05 11:44:10;;;;;;;2.97;1.15;;;;;;;18.37;69.95;101250.72;4892020;29;20048;-74
2022/10/05 11:46:59;;;;;;;2.45;1.40;;;;;;;18.33;72.18;101244.19;4897241;29;20119;-76
2022/10/05 11:49:45;;;;;;;1.42;1.13;;;;;;;18.58;70.94;101237.44;4904102;29;20093;-75
2022/10/05 11:52:23;;;;;;;1.77;1.20;;;;;;;18.71;69.60;101247.16;4907794;29;20040;-75
2022/10/05 11:55:02;;;;;;;2.40;1.27;;;;;;;18.87;68.59;101232.84;4907387;29;20442;-75
2022/10/05 11:57:52;;;;;;;6.43;1.40;;;;;;;18.93;68.94;101232.06;4900023;29;20100;-74
2022/10/05 12:00:39;;;;;;;8.65;1.13;;;;;;;18.95;67.97;101226.59;4891836;29;20120;-75
2022/10/05 12:03:16;;;;;;;2.33;1.20;;;;;;;18.97;69.12;101214.09;4889792;29;20075;-75
2022/10/05 12:06:00;;;;;;;5.80;1.17;;;;;;;19.13;68.08;101213.66;4893357;29;20398;-76
2022/10/05 12:08:47;;;;;;;2.17;1.20;;;;;;;19.15;67.23;101209.03;4898980;29;20390;-77
2022/10/05 12:11:36;;;;;;;9.32;2.13;;;;;;;19.30;67.23;101202.75;4892729;29;20936;-76
2022/10/05 12:14:28;;;;;;;5.85;1.30;;;;;;;19.26;67.14;101186.56;4892348;29;20060;-75
2022/10/05 12:16:53;;;;;;;2.20;0.90;;;;;;;19.34;66.00;101194.25;4873382;29;20051;-76
2022/10/05 12:19:30;;;;;;;1.65;1.25;;;;;;;19.47;66.42;101180.25;4907364;29;20048;-75
2022/10/05 12:22:16;;;;;;;2.38;1.25;;;;;;;19.49;64.89;101191.38;4878128;29;20119;-77
2022/10/05 12:25:00;;;;;;;2.08;1.17;;;;;;;19.44;63.71;101172.81;4877968;29;20040;-76
2022/10/05 12:27:33;;;;;;;4.45;1.38;;;;;;;19.64;65.21;101180.63;4878529;29;20578;-75
2022/10/05 12:30:02;;;;;;;;;;;;;;;19.74;63.67;101167.91;4894755;29;20789;-78
2022/10/05 12:33:08;;;;;;;2.70;1.00;;;;;;;19.53;64.57;101168.91;4913416;29;19921;-77
2022/10/05 12:35:59;;;;;;;1.38;0.90;;;;;;;19.73;63.79;101162.84;4901821;29;20382;-76
2022/10/05 12:38:31;;;;;;;3.97;1.00;;;;;;;19.73;62.77;101160.22;4908197;29;20036;-75